Time;durP1;ratioP1;P1;durP2;ratioP2;P2;SDS_P1;SDS_P2;PMS_P1;PMS_P2;Temp;Humidity;BMP_temperature;BMP_pressure;BME280_temperature;BME280_humidity;BME280_pressure;Samples;Min_cycle;Max_cycle;Signal;HPM_P1;HPM_P2
2022/12/13 00:01:35;;;;;;;21.37;12.43;;;-2.00;99.90;;;;;;5038872;28;20090;-38
2022/12/13 00:04:04;;;;;;;19.17;11.70;;;-1.90;99.90;;;;;;5039763;28;20021;-40
2022/12/13 00:06:30;;;;;;;21.63;12.63;;;-2.00;99.90;;;;;;5040082;28;20084;-39
2022/12/13 00:08:56;;;;;;;21.00;12.40;;;-2.00;99.90;;;;;;5039418;28;20524;-41
2022/12/13 00:11:22;;;;;;;20.10;12.20;;;-2.00;99.90;;;;;;5039756;28;20758;-42
2022/12/13 00:13:48;;;;;;;20.77;11.67;;;-2.00;99.90;;;;;;5039856;28;20025;-41
2022/12/13 00:16:17;;;;;;;18.87;11.63;;;-2.00;99.90;;;;;;5039374;28;20048;-40
2022/12/13 00:18:43;;;;;;;20.83;11.97;;;-2.00;99.90;;;;;;5039789;28;20465;-41
2022/12/13 00:21:13;;;;;;;20.10;11.50;;;-2.00;99.90;;;;;;5039518;28;20025;-39
2022/12/13 00:23:38;;;;;;;21.03;12.00;;;-2.00;99.90;;;;;;5039004;28;20075;-40
2022/12/13 00:26:06;;;;;;;20.13;11.57;;;-2.00;99.90;;;;;;5039563;28;20017;-39
2022/12/13 00:28:32;;;;;;;18.83;11.60;;;-2.10;99.90;;;;;;5039217;28;20036;-38
2022/12/13 00:31:01;;;;;;;19.97;12.23;;;-2.10;99.90;;;;;;5038110;28;20045;-40
2022/12/13 00:33:28;;;;;;;20.40;11.57;;;-2.10;99.90;;;;;;5040053;28;20029;-40
2022/12/13 00:35:54;;;;;;;19.67;11.93;;;-2.10;99.90;;;;;;5039040;28;20080;-39
2022/12/13 00:38:19;;;;;;;18.13;10.90;;;-2.10;99.90;;;;;;5039633;28;20837;-40
2022/12/13 00:40:45;;;;;;;19.83;11.60;;;-2.10;99.90;;;;;;5039760;28;20040;-40
2022/12/13 00:43:11;;;;;;;19.90;11.57;;;-2.10;99.90;;;;;;5038337;28;20049;-40
2022/12/13 00:45:37;;;;;;;20.03;11.27;;;-2.10;99.90;;;;;;5039306;28;20569;-39
2022/12/13 00:48:04;;;;;;;21.37;11.53;;;-2.10;99.90;;;;;;5039753;28;20032;-40
2022/12/13 00:50:30;;;;;;;19.33;11.73;;;-2.20;99.90;;;;;;5038835;28;20040;-40
2022/12/13 00:52:57;;;;;;;22.43;12.03;;;-2.20;99.90;;;;;;5038826;28;20124;-40
2022/12/13 00:55:22;;;;;;;19.90;11.60;;;-2.20;99.90;;;;;;5039687;28;20087;-39
2022/12/13 00:57:48;;;;;;;20.03;12.20;;;-2.20;99.90;;;;;;5038350;28;20751;-40
2022/12/13 01:00:14;;;;;;;21.40;12.30;;;-2.20;99.90;;;;;;5041270;28;20511;-38
2022/12/13 01:02:40;;;;;;;20.73;12.63;;;-2.20;99.90;;;;;;5042916;28;20106;-41
2022/12/13 01:05:06;;;;;;;24.43;13.80;;;-2.30;99.90;;;;;;5042100;28;20044;-40
2022/12/13 01:07:32;;;;;;;21.10;12.83;;;-2.30;99.90;;;;;;5043501;28;20068;-39
2022/12/13 01:09:58;;;;;;;22.13;13.37;;;-2.30;99.90;;;;;;5043642;28;20448;-39
2022/12/13 01:12:23;;;;;;;20.07;12.60;;;-2.30;99.90;;;;;;5042438;28;20185;-41
2022/12/13 01:14:51;;;;;;;21.50;12.40;;;-2.30;99.90;;;;;;5043146;28;20092;-41
2022/12/13 01:17:17;;;;;;;22.43;12.40;;;-2.30;99.90;;;;;;5042496;28;20025;-39
2022/12/13 01:19:42;;;;;;;20.00;12.93;;;-2.30;99.90;;;;;;5042446;28;20047;-40
2022/12/13 01:22:10;;;;;;;21.17;12.20;;;-2.30;99.90;;;;;;5043142;28;20036;-39
2022/12/13 01:24:36;;;;;;;21.90;13.23;;;-2.30;99.90;;;;;;5043118;28;20024;-41
2022/12/13 01:27:01;;;;;;;18.97;12.03;;;-2.30;99.90;;;;;;5042117;28;20025;-40
2022/12/13 01:29:27;;;;;;;20.47;12.23;;;-2.30;99.90;;;;;;5042161;28;20032;-40
2022/12/13 01:31:53;;;;;;;20.77;12.63;;;-2.30;99.90;;;;;;5042763;28;20049;-40
2022/12/13 01:34:21;;;;;;;24.30;12.83;;;-2.40;99.90;;;;;;5041827;28;20029;-39
2022/12/13 01:36:47;;;;;;;18.43;11.57;;;-2.40;99.90;;;;;;5041989;28;20068;-39
2022/12/13 01:39:16;;;;;;;23.67;13.03;;;-2.40;99.90;;;;;;5041641;28;20025;-40
2022/12/13 01:41:47;;;;;;;20.23;11.93;;;-2.40;99.90;;;;;;5041615;28;20020;-40
2022/12/13 01:44:51;;;;;;;21.57;12.80;;;-2.40;99.90;;;;;;5041954;28;20033;-40
2022/12/13 01:47:22;;;;;;;22.30;12.50;;;-2.50;99.90;;;;;;5041493;28;20753;-41
2022/12/13 01:49:48;;;;;;;20.47;12.37;;;-2.50;99.90;;;;;;5041796;28;20063;-39
2022/12/13 01:52:15;;;;;;;22.47;12.67;;;-2.50;99.90;;;;;;5041188;28;20029;-38
2022/12/13 01:54:45;;;;;;;20.70;12.97;;;-2.50;99.90;;;;;;5040348;28;20770;-40
2022/12/13 01:57:13;;;;;;;22.30;12.80;;;-2.50;99.90;;;;;;5041523;28;20424;-40
2022/12/13 01:59:40;;;;;;;23.27;12.93;;;-2.50;99.90;;;;;;5041288;28;20611;-40
2022/12/13 02:02:08;;;;;;;21.50;12.70;;;-2.60;99.90;;;;;;5041001;28;20113;-42
2022/12/13 02:04:53;;;;;;;23.60;13.33;;;-2.60;99.90;;;;;;5040858;28;20033;-39
2022/12/13 02:07:24;;;;;;;24.63;13.33;;;-2.60;99.90;;;;;;5041425;28;20380;-39
2022/12/13 02:09:55;;;;;;;22.50;12.47;;;-2.50;99.90;;;;;;5041426;28;20055;-40
2022/12/13 02:12:24;;;;;;;24.63;12.67;;;-2.60;99.90;;;;;;5040899;28;20044;-41
2022/12/13 02:14:51;;;;;;;22.47;13.00;;;-2.60;99.90;;;;;;5040058;28;20063;-38
2022/12/13 02:17:28;;;;;;;20.97;12.40;;;-2.60;99.90;;;;;;5041143;28;20044;-40
2022/12/13 02:20:26;;;;;;;20.53;11.63;;;-2.60;99.90;;;;;;5041562;28;20370;-38
2022/12/13 02:23:15;;;;;;;25.23;12.73;;;-2.60;99.90;;;;;;5040736;28;20577;-37
2022/12/13 02:26:21;;;;;;;23.67;13.87;;;-2.60;99.90;;;;;;5041123;28;20021;-37
2022/12/13 02:29:20;;;;;;;23.63;13.17;;;-2.60;99.90;;;;;;5020474;28;20029;-38
2022/12/13 02:31:56;;;;;;;23.07;13.53;;;-2.60;99.90;;;;;;5040572;28;20048;-40
2022/12/13 02:34:37;;;;;;;25.47;14.17;;;-2.60;99.90;;;;;;5042314;28;20033;-41
2022/12/13 02:37:18;;;;;;;24.57;12.53;;;-2.60;99.90;;;;;;5040666;28;20104;-38
2022/12/13 02:39:52;;;;;;;21.27;13.00;;;-2.60;99.90;;;;;;5041587;28;20036;-37
2022/12/13 02:42:49;;;;;;;26.20;14.27;;;-2.60;99.90;;;;;;5039467;28;20038;-35
2022/12/13 02:45:20;;;;;;;21.40;11.80;;;-2.60;99.90;;;;;;5040585;28;20037;-40
2022/12/13 02:47:48;;;;;;;23.27;13.83;;;-2.60;99.90;;;;;;5040730;28;20544;-35
2022/12/13 02:50:14;;;;;;;24.10;12.83;;;-2.60;99.90;;;;;;5039966;28;20198;-37
2022/12/13 02:52:42;;;;;;;25.50;13.33;;;-2.50;99.90;;;;;;5040831;28;20025;-38
2022/12/13 02:55:11;;;;;;;24.40;12.53;;;-2.40;99.90;;;;;;5040387;28;20090;-37
2022/12/13 02:57:39;;;;;;;21.47;12.67;;;-2.40;99.90;;;;;;5039564;28;20432;-40
2022/12/13 03:00:08;;;;;;;23.47;12.93;;;-2.40;99.90;;;;;;5040509;28;20032;-40
2022/12/13 03:02:49;;;;;;;24.30;14.67;;;-2.30;99.90;;;;;;5039936;28;20336;-39
2022/12/13 03:08:08;;;;;;;24.77;13.87;;;-2.30;99.90;;;;;;5040047;28;20542;-40
2022/12/13 03:11:04;;;;;;;26.90;13.30;;;-2.20;99.90;;;;;;5039898;28;20044;-40
2022/12/13 03:13:53;;;;;;;23.33;13.90;;;-2.20;99.90;;;;;;5040769;28;20094;-39
2022/12/13 03:16:36;;;;;;;23.70;13.57;;;-2.20;99.90;;;;;;5039745;28;20041;-39
2022/12/13 03:19:05;;;;;;;26.50;14.07;;;-2.20;99.90;;;;;;5038821;28;20021;-38
2022/12/13 03:21:39;;;;;;;20.73;12.90;;;-2.30;99.90;;;;;;5040205;28;20043;-40
2022/12/13 03:24:05;;;;;;;22.10;12.90;;;-2.30;99.90;;;;;;5039843;28;20162;-40
2022/12/13 03:26:31;;;;;;;19.57;11.27;;;-2.30;99.90;;;;;;5039511;28;20130;-40
2022/12/13 03:28:56;;;;;;;21.90;13.23;;;-2.30;99.90;;;;;;5039759;28;20495;-40
2022/12/13 03:31:22;;;;;;;20.10;12.67;;;-2.30;99.90;;;;;;5040007;28;20049;-39
2022/12/13 03:33:47;;;;;;;20.40;12.10;;;-2.30;99.90;;;;;;5039228;28;20021;-40
2022/12/13 03:36:14;;;;;;;23.40;13.00;;;-2.30;99.90;;;;;;5039811;28;20048;-40
2022/12/13 03:38:40;;;;;;;22.50;13.03;;;-2.30;99.90;;;;;;5039645;28;20025;-41
2022/12/13 03:41:13;;;;;;;21.50;11.90;;;-2.40;99.90;;;;;;5039694;28;20670;-38
2022/12/13 03:43:39;;;;;;;22.23;12.60;;;-2.40;99.90;;;;;;5039186;28;20070;-40
2022/12/13 03:46:05;;;;;;;22.57;13.17;;;-2.40;99.90;;;;;;5039569;28;20079;-40
2022/12/13 03:48:30;;;;;;;19.37;12.73;;;-2.40;99.90;;;;;;5039792;28;20423;-40
2022/12/13 03:50:56;;;;;;;25.30;13.47;;;-2.30;99.90;;;;;;5039677;28;20036;-40
2022/12/13 03:53:22;;;;;;;25.17;13.83;;;-2.40;99.90;;;;;;5039526;28;20032;-40
2022/12/13 03:55:48;;;;;;;23.97;13.60;;;-2.40;99.90;;;;;;5039354;28;20033;-38
2022/12/13 03:58:16;;;;;;;22.60;14.03;;;-2.40;99.90;;;;;;5039604;28;20025;-37
2022/12/13 04:00:45;;;;;;;26.47;14.70;;;-2.40;99.90;;;;;;5038917;28;20071;-41
2022/12/13 04:03:10;;;;;;;24.33;12.93;;;-2.50;99.90;;;;;;5039808;28;20024;-39
2022/12/13 04:05:38;;;;;;;23.90;14.00;;;-2.50;99.90;;;;;;5039621;28;20025;-38
2022/12/13 04:08:04;;;;;;;23.73;13.43;;;-2.50;99.90;;;;;;5039319;28;20021;-38
2022/12/13 04:10:30;;;;;;;25.87;14.40;;;-2.50;99.90;;;;;;5040396;28;20068;-40
2022/12/13 04:15:47;;;;;;;24.20;13.90;;;-2.50;99.90;;;;;;5038924;28;20126;-38
2022/12/13 04:18:14;;;;;;;23.57;13.50;;;-2.60;99.90;;;;;;5040171;28;20052;-41
2022/12/13 04:20:39;;;;;;;26.17;14.50;;;-2.60;99.90;;;;;;5039541;28;20061;-39
2022/12/13 04:23:05;;;;;;;24.40;13.80;;;-2.60;99.90;;;;;;5038605;28;20128;-38
2022/12/13 04:25:30;;;;;;;20.57;13.03;;;-2.70;99.90;;;;;;5038900;28;20047;-40
2022/12/13 04:27:56;;;;;;;23.57;13.73;;;-2.70;99.90;;;;;;5038390;28;20044;-38
2022/12/13 04:30:21;;;;;;;26.93;15.27;;;-2.70;99.90;;;;;;5039556;28;20025;-42
2022/12/13 04:32:47;;;;;;;27.73;15.43;;;-2.70;99.90;;;;;;5045795;28;20056;-39
2022/12/13 04:35:12;;;;;;;26.77;14.63;;;-2.70;99.90;;;;;;5041055;28;20041;-41
2022/12/13 04:37:38;;;;;;;26.73;14.40;;;-2.70;99.90;;;;;;5042940;28;20029;-40
2022/12/13 04:40:04;;;;;;;26.90;14.73;;;-2.70;99.90;;;;;;5043112;28;20024;-41
2022/12/13 04:42:30;;;;;;;24.67;14.30;;;-2.70;99.90;;;;;;5042730;28;20028;-39
2022/12/13 04:44:56;;;;;;;23.17;14.20;;;-2.70;99.90;;;;;;5042363;28;20017;-39
2022/12/13 04:47:21;;;;;;;24.30;13.83;;;-2.60;99.90;;;;;;5043225;28;20039;-40
2022/12/13 04:49:47;;;;;;;25.80;13.93;;;-2.70;99.90;;;;;;5042230;28;20029;-39
2022/12/13 04:52:12;;;;;;;25.00;13.97;;;-2.60;99.90;;;;;;5043276;28;20097;-41
2022/12/13 04:54:38;;;;;;;22.97;13.43;;;-2.60;99.90;;;;;;5043617;28;20029;-39
2022/12/13 04:57:09;;;;;;;21.60;13.90;;;-2.60;99.90;;;;;;5042588;28;20476;-39
2022/12/13 04:59:35;;;;;;;23.37;15.13;;;-2.60;99.90;;;;;;5042600;28;20091;-40
2022/12/13 05:02:02;;;;;;;27.50;16.10;;;-2.60;99.90;;;;;;5039798;28;20021;-40
2022/12/13 05:04:27;;;;;;;23.20;13.73;;;-2.60;99.90;;;;;;5042650;28;20033;-39
2022/12/13 05:06:53;;;;;;;25.30;14.40;;;-2.60;99.90;;;;;;5042080;28;20025;-39
2022/12/13 05:09:18;;;;;;;25.17;15.13;;;-2.60;99.90;;;;;;5042398;28;20491;-41
2022/12/13 05:11:44;;;;;;;25.93;14.87;;;-2.60;99.90;;;;;;5041281;28;20458;-40
2022/12/13 05:14:09;;;;;;;24.97;15.10;;;-2.60;99.90;;;;;;5042132;28;20147;-40
2022/12/13 05:16:35;;;;;;;22.60;14.43;;;-2.60;99.90;;;;;;5042185;28;20043;-40
2022/12/13 05:19:00;;;;;;;24.27;15.70;;;-2.60;99.90;;;;;;5041535;28;20045;-41
2022/12/13 05:21:26;;;;;;;26.30;15.70;;;-2.60;99.90;;;;;;5042298;28;20035;-37
2022/12/13 05:23:51;;;;;;;26.77;14.90;;;-2.60;99.90;;;;;;5042170;28;20028;-39
2022/12/13 05:26:17;;;;;;;26.27;14.80;;;-2.60;99.90;;;;;;5041764;28;20214;-41
2022/12/13 05:28:43;;;;;;;24.70;14.80;;;-2.60;99.90;;;;;;5042624;28;20783;-40
2022/12/13 05:31:10;;;;;;;28.23;14.17;;;-2.60;99.90;;;;;;5041583;28;20025;-41
2022/12/13 05:33:36;;;;;;;23.43;13.77;;;-2.60;99.90;;;;;;5041436;28;20056;-40
2022/12/13 05:36:04;;;;;;;24.90;14.87;;;-2.60;99.90;;;;;;5041676;28;20405;-39
2022/12/13 05:38:30;;;;;;;24.43;14.50;;;-2.60;99.90;;;;;;5042043;28;20078;-42
2022/12/13 05:40:56;;;;;;;29.73;15.67;;;-2.60;99.90;;;;;;5042873;28;20033;-41
2022/12/13 05:43:22;;;;;;;26.10;14.37;;;-2.60;99.90;;;;;;5042653;28;20040;-41
2022/12/13 05:45:49;;;;;;;23.83;14.27;;;-2.60;99.90;;;;;;5040151;28;20471;-40
2022/12/13 05:48:14;;;;;;;25.37;14.60;;;-2.60;99.90;;;;;;5041379;28;20087;-41
2022/12/13 05:50:40;;;;;;;25.80;15.03;;;-2.60;99.90;;;;;;5041991;28;20484;-42
2022/12/13 05:53:06;;;;;;;24.33;14.83;;;-2.60;99.90;;;;;;5041343;28;20032;-37
2022/12/13 05:55:32;;;;;;;26.03;15.30;;;-2.60;99.90;;;;;;5042065;28;20037;-41
2022/12/13 05:57:58;;;;;;;26.33;15.00;;;-2.60;99.90;;;;;;5041024;28;20094;-40
2022/12/13 06:00:24;;;;;;;26.60;14.83;;;-2.60;99.90;;;;;;5041578;28;20457;-39
2022/12/13 06:02:53;;;;;;;27.87;14.80;;;-2.60;99.90;;;;;;5041587;28;20025;-40
2022/12/13 06:05:19;;;;;;;25.70;15.33;;;-2.60;99.90;;;;;;5041606;28;20033;-41
2022/12/13 06:07:44;;;;;;;28.27;16.13;;;-2.70;99.90;;;;;;5040998;28;20021;-40
2022/12/13 06:10:10;;;;;;;28.63;15.77;;;-2.60;99.90;;;;;;5041447;28;20484;-44
2022/12/13 06:12:36;;;;;;;26.47;14.80;;;-2.60;99.90;;;;;;5041429;28;20384;-41
2022/12/13 06:15:03;;;;;;;26.90;15.53;;;-2.60;99.90;;;;;;5041132;28;20120;-42
2022/12/13 06:17:34;;;;;;;26.03;15.53;;;-2.70;99.90;;;;;;5041334;28;20024;-40
2022/12/13 06:20:00;;;;;;;28.20;15.80;;;-2.60;99.90;;;;;;5041101;28;20095;-39
2022/12/13 06:22:26;;;;;;;25.23;14.80;;;-2.60;99.90;;;;;;5040285;28;20195;-40
2022/12/13 06:24:52;;;;;;;24.50;14.63;;;-2.60;99.90;;;;;;5041065;28;20032;-39
2022/12/13 06:27:17;;;;;;;26.27;15.57;;;-2.60;99.90;;;;;;5041576;28;20025;-38
2022/12/13 06:29:43;;;;;;;25.20;15.60;;;-2.70;99.90;;;;;;5040918;28;20074;-41
2022/12/13 06:32:12;;;;;;;24.90;14.47;;;-2.70;99.90;;;;;;5040711;28;20041;-40
2022/12/13 06:34:37;;;;;;;26.07;15.37;;;-2.70;99.90;;;;;;5039636;28;20060;-40
2022/12/13 06:37:06;;;;;;;24.10;13.87;;;-2.70;99.90;;;;;;5040878;28;20028;-41
2022/12/13 06:39:32;;;;;;;26.77;15.27;;;-2.70;99.90;;;;;;5041195;28;20024;-41
2022/12/13 06:41:58;;;;;;;28.20;15.73;;;-2.80;99.90;;;;;;5040641;28;20029;-42
2022/12/13 06:44:23;;;;;;;28.10;14.87;;;-2.70;99.90;;;;;;5041046;28;20029;-41
2022/12/13 06:46:49;;;;;;;27.77;16.17;;;-2.80;99.90;;;;;;5040950;28;20097;-42
2022/12/13 06:49:17;;;;;;;28.63;16.80;;;-2.80;99.90;;;;;;5040042;28;20031;-41
2022/12/13 06:51:43;;;;;;;31.67;17.23;;;-2.80;99.90;;;;;;5041423;28;20816;-40
2022/12/13 06:54:08;;;;;;;28.23;16.40;;;-2.80;99.90;;;;;;5041004;28;20070;-39
2022/12/13 06:56:34;;;;;;;32.90;18.00;;;-2.80;99.90;;;;;;5040094;28;20025;-40
2022/12/13 06:58:59;;;;;;;31.37;17.13;;;-2.80;99.90;;;;;;5040223;28;20079;-40
2022/12/13 07:01:25;;;;;;;31.83;17.83;;;-2.90;99.90;;;;;;5040929;28;20090;-40
2022/12/13 07:03:53;;;;;;;26.77;15.97;;;-2.80;99.90;;;;;;5039796;28;20464;-40
2022/12/13 07:06:20;;;;;;;27.50;16.10;;;-2.90;99.90;;;;;;5040254;28;20080;-40
2022/12/13 07:08:56;;;;;;;29.73;16.30;;;-2.80;99.90;;;;;;5038350;28;20036;-40
2022/12/13 07:11:27;;;;;;;28.70;16.20;;;-2.80;99.90;;;;;;5039499;28;20047;-39
2022/12/13 07:13:53;;;;;;;31.63;16.20;;;-2.80;99.90;;;;;;5039851;28;20087;-39
2022/12/13 07:16:20;;;;;;;30.57;16.63;;;-2.80;99.90;;;;;;5040167;28;20124;-40
2022/12/13 07:18:45;;;;;;;27.27;16.53;;;-2.80;99.90;;;;;;5039211;28;20029;-40
2022/12/13 07:21:13;;;;;;;28.37;16.30;;;-2.80;99.90;;;;;;5039693;28;20507;-40
2022/12/13 07:23:40;;;;;;;29.67;15.80;;;-2.80;99.90;;;;;;5039575;28;20115;-40
2022/12/13 07:26:07;;;;;;;27.97;15.87;;;-2.90;99.90;;;;;;5039740;28;20028;-36
2022/12/13 07:28:34;;;;;;;27.20;16.07;;;-2.90;99.90;;;;;;5039937;28;20035;-39
2022/12/13 07:31:05;;;;;;;29.63;16.13;;;-2.90;99.90;;;;;;5038867;28;20570;-40
2022/12/13 07:33:31;;;;;;;29.87;17.17;;;-2.90;99.90;;;;;;5039257;28;20060;-40
2022/12/13 07:36:08;;;;;;;34.50;18.13;;;-2.90;99.90;;;;;;5039069;28;20036;-41
2022/12/13 07:38:36;;;;;;;29.37;16.87;;;-2.90;99.90;;;;;;5038532;28;20049;-41
2022/12/13 07:41:02;;;;;;;30.43;17.23;;;-2.90;99.90;;;;;;5038980;28;20033;-40
2022/12/13 07:43:28;;;;;;;28.93;17.70;;;-2.90;99.90;;;;;;5039485;28;20040;-40
2022/12/13 07:45:58;;;;;;;32.53;17.17;;;-2.90;99.90;;;;;;5038970;28;20055;-41
2022/12/13 07:48:25;;;;;;;33.57;18.30;;;-2.90;99.90;;;;;;5039790;28;20152;-40
2022/12/13 07:50:59;;;;;;;34.37;19.53;;;-2.90;99.90;;;;;;5039923;28;20085;-40
2022/12/13 07:53:25;;;;;;;33.70;19.23;;;-2.90;99.90;;;;;;5039611;28;20082;-38
2022/12/13 07:55:51;;;;;;;30.77;17.60;;;-2.90;99.90;;;;;;5040151;28;20033;-38
2022/12/13 07:58:16;;;;;;;30.63;17.73;;;-2.80;99.90;;;;;;5039962;28;20392;-40
2022/12/13 08:00:47;;;;;;;33.57;18.83;;;-2.80;99.90;;;;;;5039333;28;20721;-40
2022/12/13 08:03:13;;;;;;;33.67;17.87;;;-2.80;99.90;;;;;;5040726;28;20557;-38
2022/12/13 08:05:38;;;;;;;34.40;18.37;;;-2.80;99.90;;;;;;5040115;28;20043;-39
2022/12/13 08:08:07;;;;;;;30.80;18.30;;;-2.80;99.90;;;;;;5039319;28;20396;-40
2022/12/13 08:10:32;;;;;;;34.83;18.07;;;-2.80;99.90;;;;;;5040757;28;20040;-38
2022/12/13 08:13:02;;;;;;;31.67;17.80;;;-2.80;99.90;;;;;;5039308;28;20782;-41
2022/12/13 08:15:28;;;;;;;30.70;16.97;;;-2.80;99.90;;;;;;5040504;28;20095;-38
2022/12/13 08:17:57;;;;;;;30.20;18.03;;;-2.80;99.90;;;;;;5040373;28;20044;-40
2022/12/13 08:20:23;;;;;;;33.20;17.37;;;-2.70;99.90;;;;;;5040090;28;20055;-40
2022/12/13 08:22:56;;;;;;;28.70;16.77;;;-2.70;99.90;;;;;;5040076;28;20068;-38
2022/12/13 08:25:22;;;;;;;29.63;16.63;;;-2.70;99.90;;;;;;5040545;28;20712;-40
2022/12/13 08:27:48;;;;;;;31.60;17.60;;;-2.70;99.90;;;;;;5039305;28;20115;-40
2022/12/13 08:30:13;;;;;;;30.47;16.60;;;-2.70;99.90;;;;;;5040224;28;20495;-40
2022/12/13 08:32:39;;;;;;;31.73;17.70;;;-2.70;99.90;;;;;;5039761;28;20072;-39
2022/12/13 08:35:05;;;;;;;31.50;16.90;;;-2.70;99.90;;;;;;5039111;28;20036;-40
2022/12/13 08:37:30;;;;;;;32.33;17.60;;;-2.60;99.90;;;;;;5039548;28;20029;-41
2022/12/13 08:39:56;;;;;;;30.80;16.33;;;-2.60;99.90;;;;;;5039746;28;20032;-39
2022/12/13 08:42:23;;;;;;;30.80;16.90;;;-2.60;99.90;;;;;;5039726;28;20021;-40
2022/12/13 08:44:50;;;;;;;30.67;16.97;;;-2.60;99.90;;;;;;5040002;28;20028;-39
2022/12/13 08:47:17;;;;;;;30.30;17.57;;;-2.60;99.90;;;;;;5039790;28;20569;-40
2022/12/13 08:49:42;;;;;;;34.27;18.37;;;-2.50;99.90;;;;;;5039051;28;20052;-37
2022/12/13 08:52:08;;;;;;;33.73;18.93;;;-2.50;99.90;;;;;;5039826;28;20552;-40
2022/12/13 08:54:33;;;;;;;34.23;18.57;;;-2.50;99.90;;;;;;5039781;28;20037;-41
2022/12/13 08:56:59;;;;;;;34.13;18.13;;;-2.50;99.90;;;;;;5039861;28;20145;-40
2022/12/13 08:59:28;;;;;;;32.63;17.97;;;-2.50;99.90;;;;;;5040026;28;20404;-40
2022/12/13 09:01:54;;;;;;;31.30;17.70;;;-2.40;99.90;;;;;;5039721;28;20025;-41
2022/12/13 09:04:19;;;;;;;30.73;18.47;;;-2.40;99.90;;;;;;5039697;28;20028;-40
2022/12/13 09:06:45;;;;;;;35.63;18.50;;;-2.40;99.90;;;;;;5039698;28;20033;-39
2022/12/13 09:09:10;;;;;;;32.17;17.37;;;-2.30;99.90;;;;;;5038752;28;20028;-39
2022/12/13 09:11:39;;;;;;;31.57;17.63;;;-2.30;99.90;;;;;;5039729;28;20106;-40
2022/12/13 09:14:05;;;;;;;30.07;16.50;;;-2.30;99.90;;;;;;5039676;28;20103;-40
2022/12/13 09:16:35;;;;;;;32.13;18.60;;;-2.30;99.90;;;;;;5039531;28;20147;-40
2022/12/13 09:19:01;;;;;;;29.00;17.10;;;-2.30;99.90;;;;;;5040063;28;20040;-41
2022/12/13 09:21:27;;;;;;;30.20;16.47;;;-2.30;99.90;;;;;;5043059;28;20025;-40
2022/12/13 09:23:54;;;;;;;27.70;15.93;;;-2.20;99.90;;;;;;5042697;28;20025;-41
2022/12/13 09:26:19;;;;;;;30.87;16.50;;;-2.20;99.90;;;;;;5031987;28;20520;-37
2022/12/13 09:28:45;;;;;;;30.33;16.00;;;-2.20;99.90;;;;;;5043814;28;20060;-40
2022/12/13 09:31:14;;;;;;;27.43;15.93;;;-2.20;99.90;;;;;;5042880;28;20033;-40
2022/12/13 09:33:43;;;;;;;27.10;15.63;;;-2.10;99.90;;;;;;5043446;28;20101;-39
2022/12/13 09:36:16;;;;;;;25.97;15.53;;;-2.10;99.90;;;;;;5043123;28;20388;-39
2022/12/13 09:38:42;;;;;;;26.35;15.60;;;-2.10;99.90;;;;;;5042423;28;20064;-40
2022/12/13 09:41:29;;;;;;;25.53;15.17;;;-2.10;99.90;;;;;;5043807;28;20024;-40
2022/12/13 09:44:03;;;;;;;25.33;15.13;;;-2.10;99.90;;;;;;5043920;28;20047;-40
2022/12/13 09:46:38;;;;;;;28.33;15.73;;;-2.00;99.90;;;;;;5042031;28;20028;-40
2022/12/13 09:49:10;;;;;;;26.97;16.07;;;-2.00;99.90;;;;;;5042567;28;20114;-40
2022/12/13 09:51:36;;;;;;;29.15;16.27;;;-2.00;99.90;;;;;;5040473;28;20021;-40
2022/12/13 09:54:03;;;;;;;27.83;15.43;;;-2.00;99.90;;;;;;5042538;28;20392;-41
2022/12/13 09:56:28;;;;;;;26.17;15.37;;;-2.00;99.90;;;;;;5042791;28;20134;-40
2022/12/13 09:58:55;;;;;;;26.90;15.03;;;-2.00;99.90;;;;;;5042385;28;20549;-40
2022/12/13 10:01:21;;;;;;;27.53;14.97;;;-2.00;99.90;;;;;;5042702;28;20025;-40
2022/12/13 10:03:50;;;;;;;27.97;15.30;;;-2.00;99.90;;;;;;5043220;28;20028;-40
2022/12/13 10:06:20;;;;;;;26.33;15.80;;;-2.00;99.90;;;;;;5041848;28;20025;-40
2022/12/13 10:08:52;;;;;;;26.53;14.53;;;-2.00;99.90;;;;;;5043388;28;20507;-39
2022/12/13 10:11:19;;;;;;;29.08;15.90;;;-1.90;99.90;;;;;;5042641;28;20090;-40
2022/12/13 10:13:58;;;;;;;27.30;15.63;;;-1.90;99.90;;;;;;5041774;28;20028;-40
2022/12/13 10:16:40;;;;;;;30.10;17.00;;;-1.90;99.90;;;;;;5042381;28;20037;-39
2022/12/13 10:19:35;;;;;;;27.73;16.50;;;-1.90;99.90;;;;;;5042488;28;20023;-41
2022/12/13 10:22:03;;;;;;;30.23;16.40;;;-1.90;99.90;;;;;;5039840;28;20037;-39
2022/12/13 10:24:45;;;;;;;27.77;15.70;;;-1.90;99.90;;;;;;5042570;28;20021;-40
2022/12/13 10:27:13;;;;;;;28.85;16.77;;;-1.90;99.90;;;;;;5041009;28;20021;-40
2022/12/13 10:30:23;;;;;;;29.57;17.70;;;-1.80;99.90;;;;;;5042190;28;20107;-40
2022/12/13 10:32:58;;;;;;;25.10;15.50;;;-1.80;99.90;;;;;;5040989;28;20048;-41
2022/12/13 10:35:28;;;;;;;28.47;16.37;;;-1.80;99.90;;;;;;5041811;28;20040;-41
2022/12/13 10:37:55;;;;;;;28.40;16.53;;;-1.80;99.90;;;;;;5040978;28;20021;-40
2022/12/13 10:40:31;;;;;;;30.43;16.87;;;-1.80;99.90;;;;;;5041974;28;20029;-39
2022/12/13 10:43:19;;;;;;;28.10;15.43;;;-1.80;99.90;;;;;;5040844;28;20056;-40
2022/12/13 10:46:01;;;;;;;27.03;16.20;;;-1.80;99.90;;;;;;5042265;28;20469;-41
2022/12/13 10:48:38;;;;;;;26.53;15.30;;;-1.70;99.90;;;;;;5040905;28;20479;-45
2022/12/13 10:51:09;;;;;;;24.83;14.90;;;-1.70;99.90;;;;;;5041424;28;20155;-41
2022/12/13 10:53:50;;;;;;;29.10;16.20;;;-1.70;99.90;;;;;;5042001;28;20025;-41
2022/12/13 10:56:18;;;;;;;24.90;15.13;;;-1.70;99.90;;;;;;5041305;28;20032;-41
2022/12/13 10:58:46;;;;;;;25.73;16.03;;;-1.70;99.90;;;;;;5041174;28;20017;-38
2022/12/13 11:01:17;;;;;;;22.60;14.67;;;-1.70;99.90;;;;;;5042268;28;20072;-41
2022/12/13 11:03:55;;;;;;;26.87;14.93;;;-1.60;99.90;;;;;;5040851;28;20090;-40
2022/12/13 11:06:20;;;;;;;30.27;16.73;;;-1.50;99.90;;;;;;5042159;28;20052;-39
2022/12/13 11:08:46;;;;;;;28.00;17.27;;;-1.50;99.90;;;;;;5040303;28;20055;-41
2022/12/13 11:11:17;;;;;;;28.60;16.70;;;-1.40;99.90;;;;;;5040678;28;20036;-41
2022/12/13 11:13:51;;;;;;;27.73;16.10;;;-1.40;99.90;;;;;;5040877;28;20036;-41
2022/12/13 11:16:26;;;;;;;31.23;17.27;;;-1.40;99.90;;;;;;5020356;28;20037;-41
2022/12/13 11:18:56;;;;;;;29.00;16.53;;;-1.30;99.90;;;;;;5036327;28;20557;-39
2022/12/13 11:21:25;;;;;;;28.43;16.87;;;-1.30;99.90;;;;;;5041282;28;20024;-41
2022/12/13 11:23:53;;;;;;;27.20;16.20;;;-1.20;99.90;;;;;;5040117;28;20048;-40
2022/12/13 11:26:21;;;;;;;33.27;17.57;;;-1.20;99.90;;;;;;5041078;28;20029;-39
2022/12/13 11:29:17;;;;;;;28.97;17.23;;;-1.20;99.90;;;;;;5040960;28;20063;-40
2022/12/13 11:31:51;;;;;;;28.10;15.83;;;-1.10;99.90;;;;;;5039419;28;20041;-38
2022/12/13 11:34:33;;;;;;;29.57;16.03;;;-1.10;99.90;;;;;;5038264;28;20025;-35
2022/12/13 11:37:15;;;;;;;26.90;16.53;;;-1.10;99.90;;;;;;5021097;28;20060;-41
2022/12/13 11:39:53;;;;;;;26.48;15.55;;;-1.00;99.90;;;;;;5037610;28;20033;-40
2022/12/13 11:42:58;;;;;;;25.20;15.30;;;-1.00;99.90;;;;;;5021895;28;20026;-41
2022/12/13 11:45:35;;;;;;;25.40;15.20;;;-1.00;99.90;;;;;;5034430;28;20029;-37
2022/12/13 11:48:14;;;;;;;23.07;13.87;;;-1.00;99.90;;;;;;5041720;28;20025;-40
2022/12/13 11:50:43;;;;;;;25.90;14.77;;;-1.00;99.90;;;;;;5040998;28;20028;-39
2022/12/13 11:53:21;;;;;;;27.57;15.50;;;-1.00;99.90;;;;;;5040631;28;20043;-40
2022/12/13 11:56:25;;;;;;;24.80;15.20;;;-1.00;99.90;;;;;;5039916;28;20037;-40
2022/12/13 11:59:02;;;;;;;22.00;13.83;;;-1.00;99.90;;;;;;5040319;28;20461;-40
2022/12/13 12:01:40;;;;;;;22.90;14.53;;;-1.00;99.90;;;;;;5041435;28;20522;-40
2022/12/13 12:04:25;;;;;;;25.43;15.20;;;-0.90;99.90;;;;;;5040567;28;20602;-38
2022/12/13 12:07:15;;;;;;;25.30;15.37;;;-0.90;99.90;;;;;;5030800;28;20033;-38
2022/12/13 12:09:53;;;;;;;29.83;17.00;;;-1.00;99.90;;;;;;5040596;28;20898;-37
2022/12/13 12:12:31;;;;;;;28.57;16.97;;;-1.00;99.90;;;;;;5040655;28;20040;-40
2022/12/13 12:15:23;;;;;;;24.93;16.30;;;-1.00;99.90;;;;;;5040706;28;20033;-40
2022/12/13 12:17:49;;;;;;;28.80;16.63;;;-1.00;99.90;;;;;;5040555;28;20036;-41
2022/12/13 12:20:20;;;;;;;30.23;17.77;;;-1.00;99.90;;;;;;5040603;28;20032;-40
2022/12/13 12:23:03;;;;;;;28.10;16.57;;;-1.00;99.90;;;;;;5040529;28;20499;-41
2022/12/13 12:25:52;;;;;;;27.27;16.17;;;-1.00;99.90;;;;;;5040728;28;20021;-41
2022/12/13 12:28:25;;;;;;;28.50;16.30;;;-1.00;99.90;;;;;;5039477;28;20131;-40
2022/12/13 12:31:37;;;;;;;28.47;15.80;;;-1.00;99.90;;;;;;5040873;28;20048;-41
2022/12/13 12:34:42;;;;;;;27.80;15.20;;;-1.00;99.90;;;;;;5020050;28;20124;-40
2022/12/13 12:37:23;;;;;;;24.73;15.83;;;-1.00;99.90;;;;;;5038933;28;20032;-41
2022/12/13 12:40:16;;;;;;;25.60;15.47;;;-1.00;99.90;;;;;;5040590;28;20039;-39
2022/12/13 12:43:06;;;;;;;28.48;15.57;;;-1.00;99.90;;;;;;5040425;28;20029;-41
2022/12/13 12:45:48;;;;;;;27.17;15.83;;;-1.00;99.90;;;;;;5040944;28;20047;-41
2022/12/13 12:48:49;;;;;;;26.95;15.95;;;-1.00;99.90;;;;;;5030157;28;20033;-36
2022/12/13 12:51:28;;;;;;;26.73;16.40;;;-1.00;99.90;;;;;;5040331;28;20095;-39